createdAt,value
2022-08-14T00:02:21.047Z,11.50
2022-08-14T00:04:47.557Z,10.15
2022-08-14T00:07:14.597Z,9.88
2022-08-14T00:10:01.830Z,8.82
2022-08-14T00:12:33.792Z,9.20
2022-08-14T00:15:15.193Z,9.30
2022-08-14T00:17:48.150Z,9.25
2022-08-14T00:20:23.384Z,9.98
2022-08-14T00:22:57.490Z,10.40
2022-08-14T00:25:24.463Z,8.50
2022-08-14T00:27:56.954Z,8.55
2022-08-14T00:30:23.313Z,9.90
2022-08-14T00:32:56.629Z,9.88
2022-08-14T00:35:43.024Z,9.00
2022-08-14T00:38:09.288Z,7.88
2022-08-14T00:40:36.237Z,8.35
2022-08-14T00:43:02.694Z,8.40
2022-08-14T00:45:30.471Z,8.73
2022-08-14T00:47:57.467Z,10.18
2022-08-14T00:50:26.399Z,7.97
2022-08-14T00:52:54.420Z,8.70
2022-08-14T00:55:20.714Z,8.15
2022-08-14T00:57:47.056Z,9.23
2022-08-14T01:00:34.330Z,9.70
2022-08-14T01:03:03.399Z,8.80
2022-08-14T01:05:41.760Z,9.88
2022-08-14T01:08:50.605Z,10.65
2022-08-14T01:11:02.202Z,8.90
2022-08-14T01:13:42.258Z,8.57
2022-08-14T01:16:09.363Z,9.15
2022-08-14T01:18:40.242Z,8.68
2022-08-14T01:21:06.477Z,9.95
2022-08-14T01:23:41.672Z,10.18
2022-08-14T01:26:12.722Z,9.13
2022-08-14T01:28:56.791Z,8.65
2022-08-14T01:31:24.050Z,9.35
2022-08-14T01:35:15.773Z,9.27
2022-08-14T01:36:36.768Z,8.48
2022-08-14T01:39:03.362Z,9.65
2022-08-14T01:41:36.074Z,9.93
2022-08-14T01:44:02.478Z,9.27
2022-08-14T01:46:33.489Z,8.63
2022-08-14T01:49:03.168Z,10.70
2022-08-14T01:51:29.441Z,8.13
2022-08-14T01:53:56.419Z,9.55
2022-08-14T01:56:22.864Z,10.15
2022-08-14T01:58:58.169Z,8.57
2022-08-14T02:01:26.448Z,9.80
2022-08-14T02:03:53.387Z,9.73
2022-08-14T02:06:33.257Z,10.20
2022-08-14T02:09:00.047Z,10.23
2022-08-14T02:11:26.368Z,9.82
2022-08-14T02:13:52.703Z,10.48
2022-08-14T02:16:22.300Z,9.95
2022-08-14T02:18:49.540Z,10.10
2022-08-14T02:21:15.799Z,10.32
2022-08-14T02:23:45.796Z,9.60
2022-08-14T02:26:24.340Z,9.82
2022-08-14T02:28:57.617Z,9.73
2022-08-14T02:31:36.007Z,9.05
2022-08-14T02:34:02.760Z,10.25
2022-08-14T02:37:02.639Z,9.82
2022-08-14T02:39:27.759Z,10.88
2022-08-14T02:41:58.016Z,10.60
2022-08-14T02:44:29.600Z,11.50
2022-08-14T02:47:01.491Z,8.98
2022-08-14T02:49:34.287Z,9.68
2022-08-14T02:52:00.666Z,10.35
2022-08-14T02:54:26.909Z,11.10
2022-08-14T02:57:13.934Z,9.27
2022-08-14T02:59:39.592Z,10.40
2022-08-14T03:02:09.647Z,10.93
2022-08-14T03:04:55.864Z,10.90
2022-08-14T03:07:22.127Z,10.50
2022-08-14T03:10:27.680Z,10.27
2022-08-14T03:12:36.403Z,10.52
2022-08-14T03:15:02.630Z,10.82
2022-08-14T03:17:31.924Z,10.15
2022-08-14T03:20:07.677Z,9.00
2022-08-14T03:22:37.788Z,10.85
2022-08-14T03:25:08.219Z,10.35
2022-08-14T03:27:48.423Z,9.80
2022-08-14T03:30:23.657Z,10.85
2022-08-14T03:32:49.988Z,11.00
2022-08-14T03:35:17.757Z,11.63
2022-08-14T03:39:10.616Z,11.40
2022-08-14T03:40:30.260Z,10.63
2022-08-14T03:42:56.488Z,11.40
2022-08-14T03:45:34.686Z,11.40
2022-08-14T03:48:01.612Z,11.82
2022-08-14T03:50:31.708Z,9.85
2022-08-14T03:53:00.574Z,9.18
2022-08-14T03:55:27.100Z,10.65
2022-08-14T03:57:53.843Z,9.63
2022-08-14T04:00:43.549Z,8.63
2022-08-14T04:03:06.528Z,9.90
2022-08-14T04:05:38.060Z,9.38
2022-08-14T04:08:28.988Z,9.70
2022-08-14T04:10:55.702Z,9.45
2022-08-14T04:13:23.727Z,10.60
2022-08-14T04:15:56.135Z,9.40
2022-08-14T04:18:28.634Z,10.73
2022-08-14T04:20:55.988Z,9.90
2022-08-14T04:23:23.771Z,8.68
2022-08-14T04:25:56.374Z,11.02
2022-08-14T04:29:07.767Z,8.77
2022-08-14T04:31:09.035Z,10.57
2022-08-14T04:33:37.262Z,8.98
2022-08-14T04:36:03.614Z,9.95
2022-08-14T04:38:37.268Z,10.30
2022-08-14T04:41:04.748Z,10.18
2022-08-14T04:43:38.297Z,10.40
2022-08-14T04:46:05.168Z,10.63
2022-08-14T04:48:43.254Z,9.65
2022-08-14T04:51:17.448Z,9.20
2022-08-14T04:53:43.912Z,10.65
2022-08-14T04:56:30.675Z,10.32
2022-08-14T04:58:57.221Z,8.98
2022-08-14T05:01:23.493Z,12.02
2022-08-14T05:03:51.387Z,9.77
2022-08-14T05:06:35.058Z,10.23
2022-08-14T05:09:04.038Z,8.77
2022-08-14T05:11:31.111Z,10.40
2022-08-14T05:14:34.141Z,10.18
2022-08-14T05:16:43.657Z,9.60
2022-08-14T05:19:18.489Z,9.77
2022-08-14T05:21:57.031Z,11.40
2022-08-14T05:24:25.447Z,9.70
2022-08-14T05:26:51.685Z,9.93
2022-08-14T05:29:17.967Z,10.90
2022-08-14T05:31:44.440Z,11.82
2022-08-14T05:34:10.666Z,10.68
2022-08-14T05:36:38.016Z,10.35
2022-08-14T05:39:05.820Z,11.73
2022-08-14T05:41:52.352Z,11.77
2022-08-14T05:44:20.361Z,11.25
2022-08-14T05:46:46.571Z,10.82
2022-08-14T05:49:13.172Z,11.02
2022-08-14T05:51:39.487Z,11.68
2022-08-14T05:54:13.902Z,12.23
2022-08-14T05:56:52.047Z,9.95
2022-08-14T05:59:18.336Z,10.00
2022-08-14T06:01:45.685Z,10.75
2022-08-14T06:04:12.932Z,11.30
2022-08-14T06:06:42.021Z,10.07
2022-08-14T06:09:09.829Z,12.07
2022-08-14T06:11:36.475Z,11.60
2022-08-14T06:14:02.997Z,11.43
2022-08-14T06:16:29.987Z,12.43
2022-08-14T06:18:59.705Z,11.60
2022-08-14T06:21:26.885Z,11.90
2022-08-14T06:23:53.626Z,10.48
2022-08-14T06:26:20.876Z,10.20
2022-08-14T06:28:51.821Z,11.95
2022-08-14T06:31:18.975Z,11.10
2022-08-14T06:35:02.116Z,11.30
2022-08-14T06:36:33.014Z,11.20
2022-08-14T06:38:59.506Z,10.73
2022-08-14T06:41:57.625Z,11.73
2022-08-14T06:44:12.567Z,11.75
2022-08-14T06:46:38.832Z,11.30
2022-08-14T06:49:05.129Z,10.05
2022-08-14T06:51:38.896Z,12.70
2022-08-14T06:54:10.732Z,11.10
2022-08-14T06:56:38.264Z,11.13
2022-08-14T06:59:05.370Z,10.02
2022-08-14T07:01:32.657Z,11.10
2022-08-14T07:03:59.351Z,10.05
2022-08-14T07:06:46.540Z,10.73
2022-08-14T07:09:11.920Z,9.77
2022-08-14T07:11:38.205Z,10.55
2022-08-14T07:14:04.511Z,9.77
2022-08-14T07:16:31.264Z,11.75
2022-08-14T07:18:57.858Z,10.55
2022-08-14T07:21:25.018Z,9.95
2022-08-14T07:23:51.486Z,9.52
2022-08-14T07:26:17.859Z,9.40
2022-08-14T07:28:44.186Z,11.15
2022-08-14T07:31:10.547Z,10.70
2022-08-14T07:33:36.898Z,10.65
2022-08-14T07:36:03.440Z,9.82
2022-08-14T07:38:52.355Z,9.18
2022-08-14T07:41:18.820Z,8.10
2022-08-14T07:43:53.081Z,9.70
2022-08-14T07:46:29.444Z,8.65
2022-08-14T07:48:57.187Z,10.30
2022-08-14T07:51:23.444Z,10.23
2022-08-14T07:53:50.040Z,12.23
2022-08-14T07:56:44.240Z,11.27
2022-08-14T07:59:09.832Z,10.48
2022-08-14T08:01:36.253Z,9.38
2022-08-14T08:04:03.339Z,9.10
2022-08-14T08:06:29.781Z,8.48
2022-08-14T08:09:01.334Z,9.15
2022-08-14T08:11:29.607Z,8.70
2022-08-14T08:14:01.589Z,8.68
2022-08-14T08:16:27.797Z,8.48
2022-08-14T08:18:58.686Z,9.50
2022-08-14T08:21:33.195Z,8.95
2022-08-14T08:24:01.719Z,8.10
2022-08-14T08:26:29.868Z,8.32
2022-08-14T08:28:56.109Z,7.45
2022-08-14T08:31:23.833Z,8.65
2022-08-14T08:33:59.386Z,7.68
2022-08-14T08:36:25.590Z,7.38
2022-08-14T08:39:16.877Z,7.00
2022-08-14T08:41:43.412Z,8.50
2022-08-14T08:44:30.076Z,7.88
2022-08-14T08:46:55.963Z,9.02
2022-08-14T08:49:22.559Z,8.32
2022-08-14T08:51:49.483Z,8.00
2022-08-14T08:54:19.952Z,8.20
2022-08-14T08:56:49.969Z,8.65
2022-08-14T08:59:18.206Z,9.15
2022-08-14T09:01:46.663Z,7.85
2022-08-14T09:04:18.612Z,7.90
2022-08-14T09:07:09.309Z,8.20
2022-08-14T09:09:33.984Z,8.98
2022-08-14T09:12:19.318Z,7.85
2022-08-14T09:14:45.719Z,8.27
2022-08-14T09:17:14.542Z,8.13
2022-08-14T09:19:41.328Z,7.22
2022-08-14T09:22:35.681Z,8.00
2022-08-14T09:24:53.954Z,8.07
2022-08-14T09:27:22.641Z,7.90
2022-08-14T09:29:54.224Z,6.80
2022-08-14T09:32:59.300Z,7.32
2022-08-14T09:35:08.366Z,6.97
2022-08-14T09:37:34.926Z,7.35
2022-08-14T09:40:01.215Z,7.32
2022-08-14T09:42:34.044Z,5.60
2022-08-14T09:45:11.554Z,6.28
2022-08-14T09:47:38.475Z,4.90
2022-08-14T09:50:08.122Z,5.05
2022-08-14T09:52:34.609Z,4.97
2022-08-14T09:55:01.003Z,5.20
2022-08-14T09:57:27.674Z,5.07
2022-08-14T09:59:55.165Z,5.85
2022-08-14T10:02:21.407Z,5.15
2022-08-14T10:04:49.927Z,5.55
2022-08-14T10:07:16.417Z,4.93
2022-08-14T10:09:42.659Z,5.10
2022-08-14T10:12:28.986Z,4.97
2022-08-14T10:14:55.569Z,5.72
2022-08-14T10:17:21.803Z,4.70
2022-08-14T10:19:49.927Z,5.00
2022-08-14T10:23:13.697Z,6.50
2022-08-14T10:25:02.515Z,5.53
2022-08-14T10:27:29.135Z,5.80
2022-08-14T10:29:55.503Z,5.93
2022-08-14T10:32:36.135Z,4.45
2022-08-14T10:35:02.823Z,4.90
2022-08-14T10:37:31.661Z,5.05
2022-08-14T10:40:02.051Z,5.38
2022-08-14T10:42:36.552Z,5.75
2022-08-14T10:45:04.358Z,5.60
2022-08-14T10:47:39.478Z,5.05
2022-08-14T10:50:16.822Z,5.90
2022-08-14T10:52:43.276Z,6.45
2022-08-14T10:55:09.582Z,5.57
2022-08-14T10:57:39.053Z,6.15
2022-08-14T11:00:05.276Z,5.70
2022-08-14T11:02:50.263Z,5.15
2022-08-14T11:05:18.720Z,5.80
2022-08-14T11:07:45.053Z,5.50
2022-08-14T11:10:11.258Z,4.72
2022-08-14T11:12:40.758Z,3.95
2022-08-14T11:15:07.009Z,5.10
2022-08-14T11:17:34.356Z,5.63
2022-08-14T11:20:00.564Z,6.05
2022-08-14T11:22:57.066Z,5.00
2022-08-14T11:25:12.992Z,4.47
2022-08-14T11:27:41.536Z,5.03
2022-08-14T11:30:49.257Z,5.30
2022-08-14T11:32:54.385Z,4.82
2022-08-14T11:35:21.214Z,3.75
2022-08-14T11:37:47.473Z,5.70
2022-08-14T11:40:15.381Z,5.88
2022-08-14T11:42:58.445Z,4.78
2022-08-14T11:45:29.708Z,5.47
2022-08-14T11:48:13.239Z,5.78
2022-08-14T11:50:42.395Z,6.38
2022-08-14T11:53:09.710Z,6.07
2022-08-14T11:55:40.023Z,5.40
2022-08-14T11:58:06.907Z,6.88
2022-08-14T12:00:39.533Z,5.20
2022-08-14T12:03:14.791Z,5.30
2022-08-14T12:05:43.245Z,5.72
2022-08-14T12:08:11.118Z,4.85
2022-08-14T12:10:43.099Z,5.05
2022-08-14T12:13:09.757Z,4.55
2022-08-14T12:15:36.286Z,4.80
2022-08-14T12:18:02.547Z,4.90
2022-08-14T12:20:32.523Z,4.60
2022-08-14T12:22:59.087Z,4.97
2022-08-14T12:25:26.460Z,4.60
2022-08-14T12:27:54.290Z,4.53
2022-08-14T12:30:21.626Z,5.68
2022-08-14T12:32:47.973Z,4.45
2022-08-14T12:35:14.555Z,4.68
2022-08-14T12:37:43.307Z,4.35
2022-08-14T12:40:09.816Z,5.73
2022-08-14T12:42:36.433Z,4.95
2022-08-14T12:45:06.861Z,5.53
2022-08-14T12:47:33.148Z,4.68
2022-08-14T12:49:59.385Z,4.15
2022-08-14T12:52:36.345Z,4.32
2022-08-14T12:55:11.866Z,5.97
2022-08-14T12:57:38.165Z,4.18
2022-08-14T13:00:04.806Z,3.80
2022-08-14T13:02:50.164Z,2.97
2022-08-14T13:05:21.740Z,4.13
2022-08-14T13:07:49.905Z,3.28
2022-08-14T13:10:51.250Z,3.30
2022-08-14T13:13:13.525Z,3.65
2022-08-14T13:15:42.039Z,3.60
2022-08-14T13:18:10.865Z,3.67
2022-08-14T13:20:37.169Z,2.92
2022-08-14T13:23:03.826Z,3.22
2022-08-14T13:25:30.408Z,3.42
2022-08-14T13:27:56.626Z,2.83
2022-08-14T13:30:24.372Z,3.25
2022-08-14T13:32:50.968Z,2.90
2022-08-14T13:35:17.639Z,2.88
2022-08-14T13:37:44.240Z,3.28
2022-08-14T13:40:11.022Z,3.30
2022-08-14T13:42:37.711Z,3.97
2022-08-14T13:45:05.223Z,5.05
2022-08-14T13:47:31.521Z,3.65
2022-08-14T13:49:58.443Z,3.88
2022-08-14T13:52:52.136Z,3.92
2022-08-14T13:55:13.888Z,4.03
2022-08-14T14:00:17.894Z,4.25
2022-08-14T14:02:45.784Z,3.83
2022-08-14T14:05:12.347Z,3.33
2022-08-14T14:07:43.478Z,3.05
2022-08-14T14:10:10.405Z,3.78
2022-08-14T14:12:40.735Z,4.00
2022-08-14T14:15:07.805Z,3.20
2022-08-14T14:17:36.027Z,3.88
2022-08-14T14:20:04.608Z,2.67
2022-08-14T14:22:35.973Z,3.50
2022-08-14T14:25:19.550Z,2.90
2022-08-14T14:27:48.925Z,3.35
2022-08-14T14:30:45.968Z,2.85
2022-08-14T14:33:14.395Z,2.72
2022-08-14T14:35:52.570Z,3.15
2022-08-14T14:38:18.891Z,3.53
2022-08-14T14:40:52.664Z,2.70
2022-08-14T14:43:21.372Z,2.85
2022-08-14T14:45:49.973Z,3.07
2022-08-14T14:50:45.813Z,3.42
2022-08-14T14:53:13.169Z,4.10
2022-08-14T14:55:54.214Z,3.63
2022-08-14T14:58:26.242Z,2.97
2022-08-14T15:00:53.362Z,2.90
2022-08-14T15:03:21.337Z,4.28
2022-08-14T15:05:47.690Z,4.15
2022-08-14T15:08:17.138Z,2.97
2022-08-14T15:10:53.266Z,3.85
2022-08-14T15:13:19.579Z,3.35
2022-08-14T15:15:47.880Z,2.88
2022-08-14T15:18:39.218Z,3.05
2022-08-14T15:21:05.386Z,2.63
2022-08-14T15:23:43.891Z,4.15
2022-08-14T15:28:39.713Z,2.80
2022-08-14T15:31:06.058Z,3.20
2022-08-14T15:33:35.654Z,3.08
2022-08-14T15:36:02.328Z,3.28
2022-08-14T15:38:29.278Z,2.92
2022-08-14T15:40:56.316Z,2.80
2022-08-14T15:43:22.752Z,3.58
2022-08-14T15:45:53.566Z,3.13
2022-08-14T15:48:22.537Z,3.03
2022-08-14T15:50:50.969Z,4.40
2022-08-14T15:53:18.082Z,3.13
2022-08-14T15:55:45.993Z,3.42
2022-08-14T15:58:14.570Z,2.75
2022-08-14T16:00:44.303Z,3.33
2022-08-14T16:03:16.813Z,2.92
2022-08-14T16:05:43.218Z,3.67
2022-08-14T16:08:26.813Z,3.25
2022-08-14T16:10:55.749Z,3.00
2022-08-14T16:13:42.042Z,3.22
2022-08-14T16:16:48.929Z,4.30
2022-08-14T16:18:54.612Z,3.33
2022-08-14T16:21:20.883Z,3.55
2022-08-14T16:23:48.219Z,3.90
2022-08-14T16:26:19.985Z,3.95
2022-08-14T16:28:46.455Z,3.47
2022-08-14T16:31:17.616Z,3.08
2022-08-14T16:33:59.697Z,3.88
2022-08-14T16:36:30.231Z,4.63
2022-08-14T16:38:57.293Z,3.80
2022-08-14T16:41:26.422Z,4.25
2022-08-14T16:43:53.035Z,3.47
2022-08-14T16:46:22.429Z,4.15
2022-08-14T16:48:57.005Z,4.05
2022-08-14T16:51:24.893Z,4.18
2022-08-14T16:53:51.369Z,4.22
2022-08-14T16:56:23.678Z,4.55
2022-08-14T16:58:50.551Z,4.85
2022-08-14T17:01:24.377Z,5.03
2022-08-14T17:03:51.315Z,4.68
2022-08-14T17:06:30.561Z,4.85
2022-08-14T17:08:59.769Z,4.70
2022-08-14T17:11:27.765Z,5.13
2022-08-14T17:14:00.565Z,4.15
2022-08-14T17:16:27.540Z,4.53
2022-08-14T17:19:00.019Z,4.35
2022-08-14T17:21:31.766Z,4.68
2022-08-14T17:23:58.669Z,5.10
2022-08-14T17:26:27.262Z,5.78
2022-08-14T17:28:56.702Z,6.03
2022-08-14T17:31:57.978Z,4.65
2022-08-14T17:34:20.452Z,3.95
2022-08-14T17:36:46.782Z,5.10
2022-08-14T17:39:14.751Z,5.18
2022-08-14T17:41:43.708Z,4.95
2022-08-14T17:46:37.185Z,5.28
2022-08-14T17:49:16.255Z,4.68
2022-08-14T17:51:53.827Z,4.22
2022-08-14T17:54:22.448Z,5.10
2022-08-14T17:56:49.230Z,6.47
2022-08-14T17:59:17.681Z,4.50
2022-08-14T18:01:45.830Z,5.13
2022-08-14T18:04:27.635Z,4.93
2022-08-14T18:06:58.624Z,5.28
2022-08-14T18:09:35.510Z,5.43
2022-08-14T18:12:01.735Z,4.70
2022-08-14T18:14:32.360Z,5.28
2022-08-14T18:17:16.040Z,5.68
2022-08-14T18:19:42.375Z,4.75
2022-08-14T18:22:31.265Z,5.78
2022-08-14T18:24:54.861Z,5.55
2022-08-14T18:27:23.055Z,6.63
2022-08-14T18:29:55.371Z,4.97
2022-08-14T18:32:22.142Z,5.72
2022-08-14T18:34:51.173Z,4.38
2022-08-14T18:37:18.334Z,5.18
2022-08-14T18:40:03.600Z,3.30
2022-08-14T18:42:30.739Z,4.70
2022-08-14T18:44:57.005Z,3.95
2022-08-14T18:47:23.743Z,5.45
2022-08-14T18:49:51.980Z,4.97
2022-08-14T18:52:18.664Z,5.10
2022-08-14T18:54:48.683Z,5.05
2022-08-14T18:57:26.354Z,4.60
2022-08-14T18:59:54.094Z,5.93
2022-08-14T19:02:24.690Z,5.43
2022-08-14T19:04:57.145Z,5.22
2022-08-14T19:07:25.427Z,5.00
2022-08-14T19:09:51.830Z,5.05
2022-08-14T19:12:27.548Z,5.20
2022-08-14T19:14:54.898Z,6.10
2022-08-14T19:17:21.166Z,5.45
2022-08-14T19:19:48.538Z,5.15
2022-08-14T19:22:20.454Z,5.72
2022-08-14T19:24:56.264Z,5.25
2022-08-14T19:27:25.183Z,6.13
2022-08-14T19:29:52.677Z,5.23
2022-08-14T19:32:19.101Z,6.72
2022-08-14T19:34:48.029Z,5.68
2022-08-14T19:37:18.360Z,6.93
2022-08-14T19:39:48.453Z,5.88
2022-08-14T19:42:28.350Z,5.72
2022-08-14T19:44:56.927Z,5.50
2022-08-14T19:47:23.999Z,5.50
2022-08-14T19:50:07.898Z,11.90
2022-08-14T19:52:37.342Z,5.53
2022-08-14T19:55:05.804Z,6.25
2022-08-14T19:57:32.836Z,5.68
2022-08-14T19:59:59.135Z,5.15
2022-08-14T20:02:30.057Z,6.05
2022-08-14T20:04:57.903Z,6.18
2022-08-14T20:07:24.244Z,6.68
2022-08-14T20:11:07.095Z,5.80
2022-08-14T20:12:58.097Z,6.22
2022-08-14T20:15:24.604Z,6.35
2022-08-14T20:17:52.555Z,5.38
2022-08-14T20:20:30.565Z,6.75
2022-08-14T20:22:57.746Z,7.65
2022-08-14T20:25:28.218Z,6.25
2022-08-14T20:27:59.768Z,6.32
2022-08-14T20:30:34.124Z,6.15
2022-08-14T20:33:01.910Z,6.28
2022-08-14T20:35:35.519Z,6.75
2022-08-14T20:38:31.659Z,5.97
2022-08-14T20:40:50.279Z,6.68
2022-08-14T20:43:16.944Z,6.03
2022-08-14T20:45:43.196Z,7.07
2022-08-14T20:48:10.121Z,6.18
2022-08-14T20:50:44.923Z,5.38
2022-08-14T20:53:11.497Z,6.65
2022-08-14T20:55:41.780Z,6.45
2022-08-14T20:58:41.899Z,6.85
2022-08-14T21:00:57.855Z,7.47
2022-08-14T21:03:24.273Z,7.75
2022-08-14T21:05:56.716Z,6.82
2022-08-14T21:08:26.130Z,6.88
2022-08-14T21:10:52.526Z,6.95
2022-08-14T21:14:08.815Z,7.37
2022-08-14T21:16:33.256Z,7.28
2022-08-14T21:18:53.699Z,6.78
2022-08-14T21:21:19.944Z,7.45
2022-08-14T21:23:54.018Z,7.88
2022-08-14T21:26:51.173Z,7.10
2022-08-14T21:29:08.044Z,6.80
2022-08-14T21:31:34.270Z,7.75
2022-08-14T21:34:01.281Z,7.95
2022-08-14T21:36:31.902Z,6.47
2022-08-14T21:38:58.249Z,6.70
2022-08-14T21:41:43.241Z,8.40
2022-08-14T21:44:17.468Z,7.13
2022-08-14T21:46:44.667Z,7.45
2022-08-14T21:49:10.912Z,6.63
2022-08-14T21:51:53.452Z,8.07
2022-08-14T21:54:31.839Z,8.05
2022-08-14T21:56:58.843Z,7.45
2022-08-14T21:59:28.971Z,8.05
2022-08-14T22:02:01.082Z,9.15
2022-08-14T22:04:33.347Z,7.05
2022-08-14T22:07:01.194Z,8.68
2022-08-14T22:09:32.356Z,8.60
2022-08-14T22:11:58.997Z,7.15
2022-08-14T22:14:26.562Z,8.68
2022-08-14T22:17:03.307Z,8.57
2022-08-14T22:19:47.208Z,8.20
2022-08-14T22:22:20.859Z,7.43
2022-08-14T22:24:53.946Z,8.48
2022-08-14T22:27:26.110Z,8.10
2022-08-14T22:29:54.715Z,7.90
2022-08-14T22:32:35.006Z,7.97
2022-08-14T22:35:10.291Z,8.70
2022-08-14T22:37:36.674Z,8.93
2022-08-14T22:40:50.732Z,9.00
2022-08-14T22:42:59.904Z,8.60
2022-08-14T22:45:27.068Z,7.47
2022-08-14T22:48:03.064Z,7.38
2022-08-14T22:50:33.652Z,7.72
2022-08-14T22:53:00.268Z,9.20
2022-08-14T22:55:26.768Z,8.52
2022-08-14T22:57:53.085Z,9.23
2022-08-14T23:00:19.653Z,9.15
2022-08-14T23:02:46.050Z,8.32
2022-08-14T23:05:12.464Z,8.70
2022-08-14T23:09:01.722Z,9.52
2022-08-14T23:10:32.472Z,10.65
2022-08-14T23:13:00.491Z,8.35
2022-08-14T23:15:29.913Z,9.32
2022-08-14T23:17:56.719Z,10.05
2022-08-14T23:20:22.961Z,9.68
2022-08-14T23:22:49.182Z,11.82
2022-08-14T23:25:17.902Z,11.82
2022-08-14T23:28:03.306Z,10.70
2022-08-14T23:30:31.877Z,11.07
2022-08-14T23:33:01.776Z,10.10
2022-08-14T23:35:28.112Z,10.50
2022-08-14T23:37:54.387Z,10.50
2022-08-14T23:40:29.644Z,9.20
2022-08-14T23:42:56.574Z,10.65
2022-08-14T23:45:37.146Z,8.45
2022-08-14T23:48:03.836Z,10.32
2022-08-14T23:50:34.196Z,11.30
2022-08-14T23:53:07.439Z,10.02
2022-08-14T23:55:34.662Z,10.20
2022-08-14T23:58:01.150Z,10.23
